createdAt,value
2018-12-06T00:00:51.190Z,5.43
2018-12-06T00:03:18.941Z,6.30
2018-12-06T00:05:46.702Z,5.80
2018-12-06T00:08:16.629Z,6.70
2018-12-06T00:10:44.486Z,6.50
2018-12-06T00:13:12.302Z,6.43
2018-12-06T00:15:40.006Z,7.50
2018-12-06T00:18:09.162Z,7.10
2018-12-06T00:20:37.638Z,7.10
2018-12-06T00:23:05.506Z,7.90
2018-12-06T00:26:42.608Z,7.80
2018-12-06T00:29:10.914Z,8.63
2018-12-06T00:31:39.660Z,8.27
2018-12-06T00:34:07.372Z,8.13
2018-12-06T00:36:35.193Z,8.20
2018-12-06T00:39:04.772Z,8.10
2018-12-06T00:41:32.518Z,8.57
2018-12-06T00:44:00.234Z,7.93
2018-12-06T00:46:28.153Z,8.43
2018-12-06T00:48:56.735Z,9.33
2018-12-06T00:51:25.197Z,7.80
2018-12-06T00:53:52.863Z,9.90
2018-12-06T00:56:21.340Z,10.10
2018-12-06T00:58:49.225Z,11.10
2018-12-06T01:01:17.157Z,11.70
2018-12-06T01:03:44.878Z,11.87
2018-12-06T01:06:12.700Z,12.77
2018-12-06T01:08:40.339Z,11.37
2018-12-06T01:11:08.135Z,12.50
2018-12-06T01:13:36.023Z,12.40
2018-12-06T01:16:04.066Z,13.07
2018-12-06T01:18:31.723Z,12.10
2018-12-06T01:20:59.527Z,12.33
2018-12-06T01:23:27.496Z,12.47
2018-12-06T01:25:55.175Z,12.43
2018-12-06T01:28:26.193Z,11.97
2018-12-06T01:30:53.974Z,11.77
2018-12-06T01:33:21.682Z,13.30
2018-12-06T01:35:49.443Z,12.13
2018-12-06T01:38:17.957Z,12.30
2018-12-06T01:40:45.811Z,12.13
2018-12-06T01:43:13.625Z,11.60
2018-12-06T01:45:41.426Z,13.00
2018-12-06T01:48:09.590Z,12.70
2018-12-06T01:50:37.398Z,12.50
2018-12-06T01:53:05.639Z,12.77
2018-12-06T01:55:33.502Z,11.97
2018-12-06T01:58:01.240Z,12.60
2018-12-06T02:00:28.981Z,12.10
2018-12-06T02:02:56.751Z,11.63
2018-12-06T02:05:24.431Z,12.07
2018-12-06T02:07:52.172Z,12.67
2018-12-06T02:10:19.980Z,11.40
2018-12-06T02:12:51.024Z,10.40
2018-12-06T02:15:18.708Z,11.70
2018-12-06T02:17:47.318Z,11.83
2018-12-06T02:20:15.120Z,11.80
2018-12-06T02:22:42.877Z,10.00
2018-12-06T02:25:10.708Z,9.93
2018-12-06T02:27:38.500Z,10.97
2018-12-06T02:30:07.139Z,10.40
2018-12-06T02:32:35.097Z,10.27
2018-12-06T02:35:02.946Z,10.77
2018-12-06T02:37:30.703Z,9.93
2018-12-06T02:39:58.524Z,10.13
2018-12-06T02:42:27.031Z,9.53
2018-12-06T02:44:54.787Z,9.27
2018-12-06T02:47:22.610Z,10.03
2018-12-06T02:49:50.569Z,9.17
2018-12-06T02:52:18.960Z,8.93
2018-12-06T02:54:46.900Z,8.17
2018-12-06T02:57:14.666Z,9.17
2018-12-06T02:59:42.485Z,9.00
2018-12-06T03:02:10.158Z,9.10
2018-12-06T03:04:37.860Z,7.73
2018-12-06T03:07:05.602Z,9.03
2018-12-06T03:09:33.281Z,9.10
2018-12-06T03:12:00.978Z,8.90
2018-12-06T03:14:28.651Z,8.93
2018-12-06T03:16:56.675Z,9.53
2018-12-06T03:19:24.346Z,8.97
2018-12-06T03:21:52.170Z,8.87
2018-12-06T03:24:19.960Z,9.57
2018-12-06T03:26:47.719Z,10.33
2018-12-06T03:29:15.543Z,11.27
2018-12-06T03:31:43.282Z,10.10
2018-12-06T03:34:10.951Z,10.90
2018-12-06T03:36:38.682Z,9.87
2018-12-06T03:39:06.659Z,10.33
2018-12-06T03:41:34.474Z,12.20
2018-12-06T03:44:02.135Z,11.33
2018-12-06T03:46:29.889Z,11.40
2018-12-06T03:48:57.619Z,12.70
2018-12-06T03:51:25.436Z,11.80
2018-12-06T03:53:53.291Z,12.70
2018-12-06T03:56:21.005Z,11.90
2018-12-06T03:58:49.615Z,12.03
2018-12-06T04:01:17.417Z,12.73
2018-12-06T04:03:45.279Z,12.93
2018-12-06T04:06:13.073Z,13.50
2018-12-06T04:08:40.900Z,12.40
2018-12-06T04:11:08.680Z,13.03
2018-12-06T04:13:36.403Z,12.10
2018-12-06T04:16:04.198Z,12.23
2018-12-06T04:18:32.073Z,11.13
2018-12-06T04:20:59.793Z,11.37
2018-12-06T04:23:27.503Z,11.80
2018-12-06T04:25:55.257Z,12.30
2018-12-06T04:28:22.982Z,11.30
2018-12-06T04:30:50.796Z,11.10
2018-12-06T04:33:18.546Z,11.00
2018-12-06T04:35:46.350Z,10.13
2018-12-06T04:38:14.063Z,11.50
2018-12-06T04:40:42.007Z,11.50
2018-12-06T04:43:09.720Z,11.70
2018-12-06T04:45:37.582Z,11.30
2018-12-06T04:48:05.231Z,11.07
2018-12-06T04:50:32.969Z,11.07
2018-12-06T04:53:00.670Z,10.90
2018-12-06T04:55:28.568Z,11.60
2018-12-06T04:57:56.301Z,12.40
2018-12-06T05:00:24.028Z,12.33
2018-12-06T05:02:51.835Z,12.70
2018-12-06T05:05:19.554Z,12.60
2018-12-06T05:07:47.329Z,12.43
2018-12-06T05:10:15.164Z,12.60
2018-12-06T05:12:42.914Z,12.43
2018-12-06T05:15:10.643Z,12.57
2018-12-06T05:17:38.311Z,12.80
2018-12-06T05:20:06.690Z,12.80
2018-12-06T05:22:34.418Z,12.77
2018-12-06T05:25:02.235Z,12.73
2018-12-06T05:27:29.947Z,12.47
2018-12-06T05:29:57.689Z,11.40
2018-12-06T05:32:25.422Z,14.03
2018-12-06T05:34:53.863Z,13.00
2018-12-06T05:37:21.579Z,13.00
2018-12-06T05:39:49.538Z,13.10
2018-12-06T05:42:17.401Z,12.50
2018-12-06T05:44:45.341Z,13.17
2018-12-06T05:47:13.282Z,14.33
2018-12-06T05:49:41.014Z,14.37
2018-12-06T05:52:08.861Z,14.70
2018-12-06T05:54:36.684Z,12.70
2018-12-06T05:57:04.632Z,13.47
2018-12-06T05:59:32.445Z,13.60
2018-12-06T06:02:00.208Z,14.13
2018-12-06T06:04:28.020Z,13.67
2018-12-06T06:06:57.708Z,15.93
2018-12-06T06:09:25.689Z,15.47
2018-12-06T06:11:53.446Z,25.30
2018-12-06T06:14:21.167Z,13.30
2018-12-06T06:16:48.889Z,15.90
2018-12-06T06:19:16.766Z,14.10
2018-12-06T06:21:44.583Z,15.50
2018-12-06T06:24:12.569Z,14.83
2018-12-06T06:26:40.857Z,17.23
2018-12-06T06:29:08.483Z,16.87
2018-12-06T06:31:36.277Z,16.40
2018-12-06T06:34:03.979Z,16.27
2018-12-06T06:36:31.756Z,16.97
2018-12-06T06:39:00.286Z,16.20
2018-12-06T06:41:28.050Z,16.33
2018-12-06T06:43:56.525Z,16.77
2018-12-06T06:46:24.339Z,20.33
2018-12-06T06:48:52.061Z,18.00
2018-12-06T06:51:20.230Z,16.47
2018-12-06T06:53:49.509Z,18.27
2018-12-06T06:56:17.760Z,16.80
2018-12-06T06:58:45.577Z,16.03
2018-12-06T07:01:14.302Z,15.73
2018-12-06T07:03:42.556Z,15.70
2018-12-06T07:06:10.303Z,14.30
2018-12-06T07:08:38.053Z,15.83
2018-12-06T07:11:05.630Z,15.77
2018-12-06T07:13:33.364Z,14.20
2018-12-06T07:16:01.128Z,13.67
2018-12-06T07:18:28.951Z,14.33
2018-12-06T07:20:56.733Z,12.97
2018-12-06T07:23:24.445Z,14.87
2018-12-06T07:25:52.173Z,14.20
2018-12-06T07:28:20.348Z,15.60
2018-12-06T07:30:48.087Z,13.70
2018-12-06T07:33:16.696Z,14.47
2018-12-06T07:35:44.433Z,14.43
2018-12-06T07:38:12.352Z,15.20
2018-12-06T07:40:40.044Z,12.47
2018-12-06T07:43:07.950Z,13.30
2018-12-06T07:45:35.673Z,13.47
2018-12-06T07:48:03.428Z,13.33
2018-12-06T07:50:31.220Z,13.70
2018-12-06T07:52:59.130Z,14.77
2018-12-06T07:55:26.875Z,13.77
2018-12-06T07:57:54.544Z,13.60
2018-12-06T08:00:22.358Z,13.00
2018-12-06T08:02:50.027Z,12.47
2018-12-06T08:05:17.719Z,13.43
2018-12-06T08:07:45.451Z,11.43
2018-12-06T08:10:13.318Z,13.53
2018-12-06T08:12:41.034Z,11.93
2018-12-06T08:15:09.106Z,11.50
2018-12-06T08:17:36.841Z,11.90
2018-12-06T08:20:05.249Z,12.00
2018-12-06T08:22:32.975Z,12.20
2018-12-06T08:25:00.756Z,12.40
2018-12-06T08:27:28.487Z,12.23
2018-12-06T08:29:56.196Z,13.47
2018-12-06T08:32:23.983Z,12.20
2018-12-06T08:34:51.811Z,13.00
2018-12-06T08:37:19.657Z,11.83
2018-12-06T08:39:47.345Z,13.53
2018-12-06T08:42:14.993Z,13.00
2018-12-06T08:44:42.867Z,11.60
2018-12-06T08:47:10.598Z,12.07
2018-12-06T08:49:38.530Z,12.60
2018-12-06T08:52:06.317Z,10.13
2018-12-06T08:54:34.845Z,12.27
2018-12-06T08:57:02.568Z,11.90
2018-12-06T08:59:30.397Z,10.47
2018-12-06T09:01:58.283Z,11.30
2018-12-06T09:04:25.986Z,10.67
2018-12-06T09:06:53.737Z,10.27
2018-12-06T09:09:21.494Z,11.90
2018-12-06T09:11:49.206Z,9.97
2018-12-06T09:14:16.930Z,12.60
2018-12-06T09:16:45.076Z,11.73
2018-12-06T09:19:14.758Z,10.30
2018-12-06T09:21:42.725Z,10.40
2018-12-06T09:24:10.486Z,10.10
2018-12-06T09:26:38.289Z,9.80
2018-12-06T09:29:06.081Z,10.70
2018-12-06T09:31:33.820Z,10.50
2018-12-06T09:34:04.570Z,10.40
2018-12-06T09:36:32.864Z,10.83
2018-12-06T09:39:01.136Z,11.50
2018-12-06T09:41:29.828Z,10.53
2018-12-06T09:43:57.609Z,11.43
2018-12-06T09:46:25.548Z,11.57
2018-12-06T09:48:53.321Z,12.57
2018-12-06T09:51:20.990Z,13.13
2018-12-06T09:53:48.760Z,14.00
2018-12-06T09:56:17.389Z,13.50
2018-12-06T09:58:45.241Z,12.83
2018-12-06T10:01:14.637Z,13.10
2018-12-06T10:03:43.317Z,14.13
2018-12-06T10:06:11.141Z,13.00
2018-12-06T10:08:39.011Z,13.97
2018-12-06T10:11:06.751Z,14.00
2018-12-06T10:13:34.624Z,15.10
2018-12-06T10:16:02.365Z,14.70
2018-12-06T10:18:30.079Z,15.50
2018-12-06T10:20:57.744Z,14.73
2018-12-06T10:23:25.572Z,15.30
2018-12-06T10:25:53.813Z,15.10
2018-12-06T10:28:21.554Z,14.07
2018-12-06T10:30:49.342Z,15.33
2018-12-06T10:33:17.128Z,14.97
2018-12-06T10:35:44.868Z,14.03
2018-12-06T10:38:12.585Z,14.40
2018-12-06T10:40:40.327Z,14.17
2018-12-06T10:43:08.254Z,14.37
2018-12-06T10:45:36.079Z,15.57
2018-12-06T10:48:03.823Z,13.70
2018-12-06T10:50:31.643Z,14.40
2018-12-06T10:52:59.692Z,15.53
2018-12-06T10:55:27.510Z,14.73
2018-12-06T10:57:55.352Z,13.53
2018-12-06T11:00:24.927Z,14.60
2018-12-06T11:02:54.538Z,17.07
2018-12-06T11:05:22.277Z,16.80
2018-12-06T11:07:50.017Z,14.77
2018-12-06T11:10:17.733Z,17.23
2018-12-06T11:12:45.499Z,15.97
2018-12-06T11:15:13.327Z,17.07
2018-12-06T11:17:41.060Z,18.70
2018-12-06T11:20:08.836Z,17.30
2018-12-06T11:22:36.670Z,18.93
2018-12-06T11:25:05.578Z,18.87
2018-12-06T11:27:33.360Z,18.10
2018-12-06T11:30:01.179Z,17.87
2018-12-06T11:32:28.962Z,19.80
2018-12-06T11:34:56.766Z,17.63
2018-12-06T11:37:24.889Z,17.00
2018-12-06T11:39:52.756Z,17.60
2018-12-06T11:42:21.076Z,15.47
2018-12-06T11:44:48.796Z,17.00
2018-12-06T11:47:16.563Z,16.57
2018-12-06T11:49:44.325Z,17.40
2018-12-06T11:52:12.092Z,17.57
2018-12-06T11:54:39.851Z,19.00
2018-12-06T11:57:08.512Z,17.70
2018-12-06T11:59:36.358Z,18.77
2018-12-06T12:02:09.956Z,18.80
2018-12-06T12:04:35.261Z,20.00
2018-12-06T12:07:03.103Z,21.10
2018-12-06T12:09:31.327Z,19.80
2018-12-06T12:11:59.058Z,23.83
2018-12-06T12:14:27.451Z,22.10
2018-12-06T12:16:55.156Z,21.17
2018-12-06T12:19:25.324Z,22.20
2018-12-06T12:21:56.899Z,22.07
2018-12-06T12:24:24.752Z,21.60
2018-12-06T12:26:52.415Z,29.60
2018-12-06T12:29:20.260Z,20.50
2018-12-06T12:31:48.029Z,21.60
2018-12-06T12:34:16.307Z,21.57
2018-12-06T12:36:44.062Z,19.10
2018-12-06T12:39:11.816Z,18.30
2018-12-06T12:41:39.657Z,18.77
2018-12-06T12:44:07.472Z,19.27
2018-12-06T12:46:35.231Z,17.93
2018-12-06T12:49:02.999Z,17.57
2018-12-06T12:51:30.960Z,16.80
2018-12-06T12:53:58.767Z,15.60
2018-12-06T12:56:26.740Z,16.43
2018-12-06T12:58:55.335Z,16.30
2018-12-06T13:01:23.100Z,17.37
2018-12-06T13:03:50.915Z,17.00
2018-12-06T13:06:19.514Z,16.57
2018-12-06T13:08:47.365Z,16.03
2018-12-06T13:11:15.454Z,14.67
2018-12-06T13:13:43.302Z,14.50
2018-12-06T13:16:11.126Z,13.77
2018-12-06T13:18:39.100Z,13.70
2018-12-06T13:21:07.154Z,13.53
2018-12-06T13:23:36.586Z,11.97
2018-12-06T13:26:04.472Z,12.00
2018-12-06T13:28:32.299Z,11.10
2018-12-06T13:31:00.437Z,11.30
2018-12-06T13:33:28.599Z,12.10
2018-12-06T13:35:56.524Z,12.90
2018-12-06T13:38:25.544Z,12.53
2018-12-06T13:40:53.465Z,13.60
2018-12-06T13:43:21.283Z,13.77
2018-12-06T13:45:49.715Z,11.17
2018-12-06T13:48:17.939Z,12.00
2018-12-06T13:50:46.002Z,11.87
2018-12-06T13:53:14.283Z,11.03
2018-12-06T13:55:42.078Z,10.70
2018-12-06T13:58:09.956Z,12.50
2018-12-06T14:00:37.978Z,10.10
2018-12-06T14:03:06.070Z,11.10
2018-12-06T14:05:33.853Z,12.00
2018-12-06T14:08:01.606Z,11.20
2018-12-06T14:10:29.418Z,8.93
2018-12-06T14:12:57.142Z,9.80
2018-12-06T14:15:25.229Z,10.60
2018-12-06T14:17:52.954Z,9.10
2018-12-06T14:20:20.674Z,8.93
2018-12-06T14:22:48.383Z,8.47
2018-12-06T14:25:16.117Z,8.70
2018-12-06T14:27:43.911Z,8.53
2018-12-06T14:30:12.038Z,9.63
2018-12-06T14:32:39.717Z,7.70
2018-12-06T14:35:07.919Z,8.07
2018-12-06T14:37:35.775Z,8.10
2018-12-06T14:40:05.302Z,8.30
2018-12-06T14:42:33.159Z,9.43
2018-12-06T14:45:00.996Z,8.57
2018-12-06T14:47:29.205Z,8.40
2018-12-06T14:49:57.007Z,7.90
2018-12-06T14:52:25.556Z,7.70
2018-12-06T14:54:53.584Z,7.27
2018-12-06T14:57:21.256Z,8.30
2018-12-06T14:59:49.343Z,8.30
2018-12-06T15:02:17.059Z,7.40
2018-12-06T15:04:44.792Z,8.77
2018-12-06T15:07:12.624Z,7.47
2018-12-06T15:09:40.626Z,7.40
2018-12-06T15:12:08.337Z,7.27
2018-12-06T15:14:36.306Z,8.33
2018-12-06T15:17:04.071Z,8.10
2018-12-06T15:19:31.777Z,8.20
2018-12-06T15:21:59.558Z,7.90
2018-12-06T15:24:27.563Z,6.83
2018-12-06T15:26:55.380Z,7.63
2018-12-06T15:29:23.229Z,8.67
2018-12-06T15:31:51.268Z,8.17
2018-12-06T15:34:19.065Z,7.80
2018-12-06T15:36:46.898Z,8.33
2018-12-06T15:39:14.714Z,9.03
2018-12-06T15:41:42.524Z,8.00
2018-12-06T15:44:10.244Z,8.60
2018-12-06T15:46:38.580Z,9.10
2018-12-06T15:49:06.492Z,8.60
2018-12-06T15:51:34.331Z,9.93
2018-12-06T15:54:02.208Z,9.10
2018-12-06T15:56:29.994Z,10.07
2018-12-06T15:58:57.740Z,10.20
2018-12-06T16:01:25.615Z,9.30
2018-12-06T16:03:53.291Z,8.50
2018-12-06T16:06:21.102Z,9.60
2018-12-06T16:08:48.765Z,9.30
2018-12-06T16:11:16.558Z,10.90
2018-12-06T16:13:44.784Z,9.00
2018-12-06T16:16:12.514Z,8.97
2018-12-06T16:18:40.301Z,9.50
2018-12-06T16:21:08.051Z,8.13
2018-12-06T16:23:35.794Z,9.13
2018-12-06T16:26:03.483Z,9.10
2018-12-06T16:28:31.244Z,8.67
2018-12-06T16:30:59.412Z,9.53
2018-12-06T16:33:27.404Z,9.30
2018-12-06T16:35:55.247Z,8.83
2018-12-06T16:38:23.431Z,8.00
2018-12-06T16:40:51.212Z,6.97
2018-12-06T16:43:18.949Z,8.77
2018-12-06T16:45:46.894Z,7.83
2018-12-06T16:48:14.737Z,6.67
2018-12-06T16:50:42.481Z,7.77
2018-12-06T16:53:11.845Z,6.93
2018-12-06T16:55:39.797Z,7.80
2018-12-06T16:58:07.662Z,7.70
2018-12-06T17:00:35.717Z,6.30
2018-12-06T17:03:04.290Z,6.87
2018-12-06T17:05:32.193Z,6.17
2018-12-06T17:08:03.501Z,6.37
2018-12-06T17:10:32.662Z,7.33
2018-12-06T17:13:00.607Z,6.40
2018-12-06T17:15:29.084Z,7.33
2018-12-06T17:17:56.917Z,6.97
2018-12-06T17:20:24.878Z,6.60
2018-12-06T17:22:52.686Z,6.63
2018-12-06T17:25:21.170Z,7.60
2018-12-06T17:27:48.899Z,8.10
2018-12-06T17:30:17.101Z,7.07
2018-12-06T17:32:45.244Z,6.63
2018-12-06T17:35:13.101Z,7.63
2018-12-06T17:37:41.043Z,6.90
2018-12-06T17:40:08.972Z,7.53
2018-12-06T17:42:37.558Z,6.80
2018-12-06T17:45:06.883Z,8.10
2018-12-06T17:47:34.837Z,7.47
2018-12-06T17:50:03.835Z,8.40
2018-12-06T17:52:31.615Z,8.40
2018-12-06T17:54:59.621Z,9.67
2018-12-06T17:57:27.368Z,8.40
2018-12-06T17:59:55.294Z,7.63
2018-12-06T18:02:23.205Z,8.97
2018-12-06T18:04:50.975Z,8.27
2018-12-06T18:07:20.690Z,8.40
2018-12-06T18:09:49.487Z,9.23
2018-12-06T18:12:17.349Z,9.47
2018-12-06T18:14:45.159Z,8.40
2018-12-06T18:17:13.085Z,8.80
2018-12-06T18:19:40.877Z,9.57
2018-12-06T18:22:09.345Z,10.30
2018-12-06T18:24:37.125Z,9.37
2018-12-06T18:27:05.113Z,9.50
2018-12-06T18:29:32.899Z,9.67
2018-12-06T18:32:00.930Z,8.67
2018-12-06T18:34:28.902Z,9.63
2018-12-06T18:36:56.749Z,9.13
2018-12-06T18:39:24.550Z,7.90
2018-12-06T18:41:52.248Z,8.57
2018-12-06T18:44:20.172Z,9.10
2018-12-06T18:46:47.901Z,9.30
2018-12-06T18:49:15.750Z,8.77
2018-12-06T18:51:43.602Z,8.67
2018-12-06T18:54:11.734Z,8.10
2018-12-06T18:56:39.880Z,8.00
2018-12-06T18:59:07.902Z,8.33
2018-12-06T19:01:36.523Z,8.80
2018-12-06T19:04:05.240Z,8.40
2018-12-06T19:06:36.712Z,8.30
2018-12-06T19:09:05.315Z,7.87
2018-12-06T19:11:33.842Z,7.70
2018-12-06T19:14:02.687Z,7.77
2018-12-06T19:16:33.265Z,6.80
2018-12-06T19:19:01.238Z,8.67
2018-12-06T19:21:29.160Z,8.43
2018-12-06T19:23:57.102Z,7.40
2018-12-06T19:26:25.043Z,8.87
2018-12-06T19:28:52.897Z,8.37
2018-12-06T19:31:21.028Z,8.53
2018-12-06T19:33:49.002Z,7.63
2018-12-06T19:36:16.721Z,8.63
2018-12-06T19:38:44.724Z,8.57
2018-12-06T19:41:12.409Z,9.07
2018-12-06T19:43:40.333Z,9.07
2018-12-06T19:46:08.233Z,9.10
2018-12-06T19:48:36.087Z,8.47
2018-12-06T19:51:03.928Z,8.47
2018-12-06T19:53:31.896Z,9.90
2018-12-06T19:55:59.745Z,8.23
2018-12-06T19:58:27.761Z,8.60
2018-12-06T20:00:55.801Z,9.20
2018-12-06T20:03:23.989Z,9.70
2018-12-06T20:05:51.948Z,7.23
2018-12-06T20:08:20.006Z,8.33
2018-12-06T20:10:47.922Z,8.10
2018-12-06T20:13:15.760Z,8.60
2018-12-06T20:15:43.622Z,8.73
2018-12-06T20:18:14.079Z,8.37
2018-12-06T20:20:42.467Z,9.80
2018-12-06T20:23:10.731Z,7.90
2018-12-06T20:25:38.637Z,10.17
2018-12-06T20:28:06.817Z,9.03
2018-12-06T20:30:35.122Z,8.67
2018-12-06T20:33:03.096Z,8.33
2018-12-06T20:35:30.989Z,9.30
2018-12-06T20:37:58.854Z,10.50
2018-12-06T20:40:26.758Z,8.70
2018-12-06T20:42:55.338Z,9.50
2018-12-06T20:45:23.133Z,8.97
2018-12-06T20:47:50.954Z,9.23
2018-12-06T20:50:18.704Z,9.10
2018-12-06T20:52:46.605Z,9.43
2018-12-06T20:55:15.604Z,10.37
2018-12-06T20:57:44.002Z,9.50
2018-12-06T21:00:11.865Z,10.50
2018-12-06T21:02:39.614Z,9.17
2018-12-06T21:05:08.271Z,9.90
2018-12-06T21:07:36.402Z,10.60
2018-12-06T21:10:05.016Z,10.80
2018-12-06T21:12:33.060Z,10.57
2018-12-06T21:15:00.821Z,10.60
2018-12-06T21:17:28.689Z,11.90
2018-12-06T21:19:56.910Z,11.77
2018-12-06T21:22:24.769Z,11.20
2018-12-06T21:24:52.547Z,10.97
2018-12-06T21:27:20.406Z,10.97
2018-12-06T21:29:48.383Z,11.37
2018-12-06T21:32:17.406Z,10.27
2018-12-06T21:34:45.201Z,13.80
2018-12-06T21:37:12.986Z,11.90
2018-12-06T21:39:40.704Z,11.60
2018-12-06T21:42:09.172Z,12.03
2018-12-06T21:44:36.985Z,12.77
2018-12-06T21:47:05.334Z,12.43
2018-12-06T21:49:33.229Z,11.07
2018-12-06T21:52:01.065Z,12.97
2018-12-06T21:54:28.854Z,12.50
2018-12-06T21:56:56.635Z,13.47
2018-12-06T21:59:24.510Z,12.93
2018-12-06T22:01:55.961Z,12.47
2018-12-06T22:04:23.819Z,12.90
2018-12-06T22:06:51.781Z,12.43
2018-12-06T22:09:19.570Z,12.97
2018-12-06T22:11:47.510Z,12.77
2018-12-06T22:14:15.336Z,13.40
2018-12-06T22:16:43.121Z,14.20
2018-12-06T22:19:10.944Z,12.97
2018-12-06T22:21:38.704Z,13.30
2018-12-06T22:24:06.426Z,11.53
2018-12-06T22:26:34.285Z,12.50
2018-12-06T22:29:02.922Z,12.17
2018-12-06T22:31:30.975Z,11.30
2018-12-06T22:33:58.893Z,11.17
2018-12-06T22:36:26.653Z,11.00
2018-12-06T22:38:54.416Z,10.50
2018-12-06T22:41:23.369Z,11.57
2018-12-06T22:43:51.341Z,10.93
2018-12-06T22:46:19.271Z,11.17
2018-12-06T22:48:47.065Z,10.83
2018-12-06T22:51:15.087Z,13.00
2018-12-06T22:53:42.896Z,10.23
2018-12-06T22:56:10.776Z,9.67
2018-12-06T22:58:38.961Z,11.43
2018-12-06T23:01:09.050Z,10.73
2018-12-06T23:03:37.143Z,9.40
2018-12-06T23:06:05.945Z,9.93
2018-12-06T23:08:33.696Z,10.03
2018-12-06T23:11:01.646Z,9.60
2018-12-06T23:13:29.383Z,10.43
2018-12-06T23:15:57.098Z,9.57
2018-12-06T23:18:25.049Z,10.17
2018-12-06T23:20:52.963Z,10.43
2018-12-06T23:23:20.837Z,8.70
2018-12-06T23:25:48.565Z,9.73
2018-12-06T23:28:16.406Z,10.80
2018-12-06T23:30:44.294Z,9.63
2018-12-06T23:33:11.982Z,8.70
2018-12-06T23:35:40.165Z,9.40
2018-12-06T23:38:08.205Z,8.43
2018-12-06T23:40:35.945Z,10.63
2018-12-06T23:43:03.839Z,8.27
2018-12-06T23:45:32.748Z,9.70
2018-12-06T23:48:00.494Z,9.50
2018-12-06T23:50:28.257Z,9.97
2018-12-06T23:52:55.989Z,9.90
2018-12-06T23:55:23.754Z,8.83
2018-12-06T23:57:51.485Z,9.40
